Time;durP1;ratioP1;P1;durP2;ratioP2;P2;SDS_P1;SDS_P2;PMS_P1;PMS_P2;Temp;Humidity;BMP_temperature;BMP_pressure;BME280_temperature;BME280_humidity;BME280_pressure;Samples;Min_cycle;Max_cycle;Signal;HPM_P1;HPM_P2
2021/01/26 00:02:26;;;;;;;17.98;9.50;;;0.30;99.90;;;;;;20929011;28;20104;-79
2021/01/26 00:12:27;;;;;;;21.75;9.80;;;0.30;99.90;;;;;;20929917;28;20037;-80
2021/01/26 00:22:28;;;;;;;14.82;8.43;;;0.30;99.90;;;;;;20928540;28;20509;-81
2021/01/26 00:32:29;;;;;;;16.80;8.25;;;0.40;99.90;;;;;;20946618;28;20025;-81
2021/01/26 00:42:30;;;;;;;19.98;9.48;;;0.40;99.90;;;;;;20946357;28;20108;-78
2021/01/26 00:52:30;;;;;;;19.25;8.40;;;0.40;99.90;;;;;;20971618;28;20033;-80
2021/01/26 01:02:39;;;;;;;13.02;7.38;;;0.40;99.90;;;;;;20938635;28;20025;-78
2021/01/26 01:12:40;;;;;;;13.90;7.50;;;0.30;99.90;;;;;;20996298;28;20029;-81
2021/01/26 01:22:41;;;;;;;12.15;7.22;;;0.30;99.90;;;;;;21023036;28;20425;-80
2021/01/26 01:32:42;;;;;;;12.48;5.82;;;0.10;99.90;;;;;;20979845;28;20044;-80
2021/01/26 01:42:43;;;;;;;11.93;6.15;;;0.00;99.90;;;;;;20943238;28;20283;-81
2021/01/26 01:52:44;;;;;;;10.45;5.38;;;-0.10;99.90;;;;;;20925114;28;20028;-81
2021/01/26 02:02:55;;;;;;;8.10;4.50;;;-0.20;99.90;;;;;;20922435;28;20033;-80
2021/01/26 02:12:56;;;;;;;10.85;5.90;;;-0.20;99.90;;;;;;20922488;28;20071;-80
2021/01/26 02:23:12;;;;;;;11.98;6.15;;;-0.20;99.90;;;;;;20922824;28;20059;-81
2021/01/26 02:33:28;;;;;;;11.05;5.95;;;-0.10;99.90;;;;;;20911216;28;20132;-79
2021/01/26 02:43:54;;;;;;;15.45;7.60;;;0.00;99.90;;;;;;20894949;28;20033;-79
2021/01/26 02:54:07;;;;;;;14.32;7.63;;;0.00;99.90;;;;;;20909262;28;20067;-79
2021/01/26 03:04:23;;;;;;;13.73;7.45;;;0.00;99.90;;;;;;20894172;28;20515;-77
2021/01/26 03:14:38;;;;;;;16.30;7.05;;;-0.10;99.90;;;;;;20907836;28;20033;-78
2021/01/26 03:24:41;;;;;;;18.73;7.45;;;0.00;99.90;;;;;;20909877;28;20029;-78
2021/01/26 03:34:42;;;;;;;14.13;7.38;;;-0.10;99.90;;;;;;20927866;28;20505;-79
2021/01/26 03:44:45;;;;;;;16.52;7.25;;;-0.10;99.90;;;;;;20936423;28;20024;-78
2021/01/26 03:55:01;;;;;;;15.77;7.18;;;-0.20;99.90;;;;;;20941351;28;20033;-80
2021/01/26 04:05:08;;;;;;;13.48;6.85;;;-0.30;99.90;;;;;;20895069;28;20072;-81
2021/01/26 04:15:15;;;;;;;15.85;7.85;;;-0.10;99.90;;;;;;20840799;28;20496;-77
2021/01/26 04:25:35;;;;;;;16.98;7.00;;;0.10;99.90;;;;;;20862865;28;20041;-78
2021/01/26 04:35:37;;;;;;;14.25;6.50;;;0.10;99.90;;;;;;20903424;28;20175;-80
2021/01/26 04:45:46;;;;;;;12.10;6.50;;;0.00;99.90;;;;;;20905036;28;20040;-80
2021/01/26 04:56:28;;;;;;;12.38;6.65;;;0.00;99.90;;;;;;20942651;28;20033;-79
2021/01/26 05:07:07;;;;;;;18.58;6.70;;;0.00;99.90;;;;;;20929583;28;20043;-80
2021/01/26 05:17:09;;;;;;;15.27;7.15;;;-0.10;99.90;;;;;;20929459;28;20131;-78
2021/01/26 05:27:10;;;;;;;15.05;6.60;;;-0.10;99.90;;;;;;20931958;28;20036;-79
2021/01/26 05:37:15;;;;;;;14.27;6.38;;;-0.10;99.90;;;;;;20921819;28;20400;-81
2021/01/26 05:47:29;;;;;;;14.68;6.45;;;-0.10;99.90;;;;;;20946147;28;20029;-81
2021/01/26 05:57:36;;;;;;;13.65;6.78;;;-0.10;99.90;;;;;;20953173;28;20061;-80
2021/01/26 06:07:37;;;;;;;17.90;7.07;;;0.00;99.90;;;;;;20940869;28;20696;-80
2021/01/26 06:17:38;;;;;;;18.42;7.65;;;0.00;99.90;;;;;;20942127;28;20021;-79
2021/01/26 06:27:50;;;;;;;14.48;7.15;;;0.00;99.90;;;;;;20943005;28;20033;-80
2021/01/26 06:38:28;;;;;;;13.88;6.80;;;0.10;99.90;;;;;;20942952;28;20029;-80
2021/01/26 06:48:40;;;;;;;16.52;7.47;;;0.00;99.90;;;;;;20922449;28;20043;-80
2021/01/26 06:58:50;;;;;;;13.93;6.63;;;0.00;99.90;;;;;;20940033;28;20029;-80
2021/01/26 07:09:08;;;;;;;18.58;7.05;;;0.00;99.90;;;;;;20922960;28;20090;-77
2021/01/26 07:19:24;;;;;;;14.55;7.13;;;0.00;99.90;;;;;;20918922;28;20547;-80
2021/01/26 07:29:59;;;;;;;11.35;6.13;;;0.00;99.90;;;;;;20916524;28;20033;-80
2021/01/26 07:40:30;;;;;;;10.70;5.47;;;0.10;99.90;;;;;;20914814;28;20051;-80
2021/01/26 07:50:44;;;;;;;13.30;4.67;;;0.20;99.90;;;;;;20909480;28;20032;-78
2021/01/26 08:00:50;;;;;;;11.85;4.18;;;0.30;99.90;;;;;;20912371;28;20523;-79
2021/01/26 08:11:20;;;;;;;9.05;3.63;;;0.40;99.90;;;;;;20923477;28;20033;-77
2021/01/26 08:21:43;;;;;;;9.82;4.78;;;0.40;99.90;;;;;;20923022;28;20025;-78
2021/01/26 08:31:44;;;;;;;12.35;4.43;;;0.40;99.90;;;;;;20922427;28;20039;-77
2021/01/26 08:41:45;;;;;;;9.63;5.10;;;0.50;99.90;;;;;;20902262;28;20089;-78
2021/01/26 08:51:46;;;;;;;;;;;0.50;99.90;;;;;;20903480;28;20495;-78
2021/01/26 09:01:49;;;;;;;9.73;4.72;;;0.60;99.90;;;;;;20917932;28;20286;-78
2021/01/26 09:11:56;;;;;;;9.45;4.80;;;0.60;99.90;;;;;;20900678;28;20162;-77
2021/01/26 09:22:04;;;;;;;9.98;5.30;;;0.60;99.90;;;;;;20916286;28;20056;-77
2021/01/26 09:32:06;;;;;;;10.23;5.63;;;0.70;99.90;;;;;;20900385;28;20116;-77
2021/01/26 09:42:19;;;;;;;44.55;16.52;;;0.60;99.90;;;;;;20897835;28;20033;-77
2021/01/26 09:52:20;;;;;;;14.20;5.90;;;0.70;99.90;;;;;;20914956;28;20083;-78
2021/01/26 10:02:22;;;;;;;9.95;5.13;;;1.10;99.90;;;;;;20913148;28;20499;-77
2021/01/26 10:12:37;;;;;;;20.38;10.45;;;2.60;99.90;;;;;;20894282;28;20045;-78
2021/01/26 10:22:38;;;;;;;10.45;4.85;;;2.80;99.90;;;;;;20911911;28;20029;-77
2021/01/26 10:32:39;;;;;;;;;;;2.20;99.90;;;;;;20912797;28;20112;-76
2021/01/26 10:42:45;;;;;;;9.98;4.30;;;2.30;99.90;;;;;;20915870;28;19908;-77
2021/01/26 10:52:49;;;;;;;10.02;4.00;;;2.30;99.90;;;;;;20891573;28;20032;-78
2021/01/26 11:02:50;;;;;;;8.10;3.33;;;2.30;99.90;;;;;;20891063;28;20025;-78
2021/01/26 11:12:51;;;;;;;9.25;3.55;;;3.30;99.90;;;;;;20906890;28;20032;-77
2021/01/26 11:22:52;;;;;;;7.18;3.65;;;3.20;99.90;;;;;;20887742;28;20104;-78
2021/01/26 11:32:58;;;;;;;13.50;2.88;;;2.70;99.90;;;;;;20888760;28;20044;-78
2021/01/26 11:42:59;;;;;;;9.10;2.88;;;3.80;99.90;;;;;;20903381;28;20056;-77
2021/01/26 11:53:01;;;;;;;5.28;2.35;;;3.00;99.90;;;;;;20854177;28;20837;-78
2021/01/26 12:03:03;;;;;;;7.88;2.20;;;3.70;99.90;;;;;;20870971;28;20064;-78
2021/01/26 12:13:05;;;;;;;7.22;2.35;;;3.80;99.90;;;;;;20823909;28;20088;-80
2021/01/26 12:23:19;;;;;;;4.65;2.13;;;3.90;99.90;;;;;;20965211;28;20357;-79
2021/01/26 12:33:23;;;;;;;3.00;1.83;;;3.80;99.90;;;;;;20835742;28;20030;-77
2021/01/26 12:43:24;;;;;;;3.22;1.90;;;3.60;99.90;;;;;;20837036;28;20523;-78
2021/01/26 12:53:25;;;;;;;2.77;1.80;;;3.80;99.90;;;;;;20891603;28;20025;-77
2021/01/26 13:03:26;;;;;;;7.03;2.30;;;3.80;99.90;;;;;;20869022;28;20037;-78
2021/01/26 13:13:28;;;;;;;4.10;2.13;;;3.60;99.90;;;;;;20881321;28;20124;-79
2021/01/26 13:23:29;;;;;;;6.43;2.30;;;3.40;99.90;;;;;;20878128;28;20041;-80
2021/01/26 13:33:30;;;;;;;7.63;2.20;;;3.40;99.90;;;;;;20823340;28;20043;-81
2021/01/26 13:43:31;;;;;;;7.65;1.98;;;3.40;99.90;;;;;;20829099;28;20025;-78
2021/01/26 13:53:32;;;;;;;7.57;2.13;;;3.50;99.90;;;;;;20804023;28;20037;-78
2021/01/26 14:03:33;;;;;;;4.43;1.80;;;3.50;99.90;;;;;;20827683;28;20163;-78
2021/01/26 14:13:34;;;;;;;5.97;2.17;;;3.70;99.90;;;;;;20832765;28;20037;-78
2021/01/26 14:23:35;;;;;;;;;;;3.50;99.90;;;;;;20755782;28;20459;-79
2021/01/26 14:33:36;;;;;;;6.57;1.90;;;3.20;99.90;;;;;;20820516;28;19948;-77
2021/01/26 14:43:37;;;;;;;5.60;2.00;;;3.30;99.90;;;;;;20844773;28;20037;-78
2021/01/26 14:53:38;;;;;;;;;;;3.20;99.90;;;;;;20847301;28;20120;-77
2021/01/26 15:03:39;;;;;;;5.18;1.40;;;3.00;99.90;;;;;;20837111;28;20307;-79
2021/01/26 15:13:40;;;;;;;5.88;1.50;;;2.80;99.90;;;;;;20829519;28;20121;-77
2021/01/26 15:23:42;;;;;;;9.27;1.40;;;3.10;99.90;;;;;;20843207;28;20037;-77
2021/01/26 15:33:44;;;;;;;13.32;1.90;;;2.70;99.90;;;;;;20836337;28;20291;-78
2021/01/26 15:43:44;;;;;;;;;;;2.50;99.90;;;;;;20832866;28;20041;-78
2021/01/26 15:53:45;;;;;;;6.50;1.45;;;2.30;99.90;;;;;;20834225;28;20300;-79
2021/01/26 16:03:46;;;;;;;9.80;1.70;;;2.20;99.90;;;;;;20818029;28;20104;-78
2021/01/26 16:13:47;;;;;;;3.08;1.90;;;2.10;99.90;;;;;;20836458;28;20059;-80
2021/01/26 16:23:49;;;;;;;7.28;1.70;;;2.00;99.90;;;;;;20839466;28;20114;-77
2021/01/26 16:33:50;;;;;;;5.10;1.92;;;1.90;99.90;;;;;;20829434;28;20454;-77
2021/01/26 16:43:51;;;;;;;7.25;2.15;;;2.00;99.90;;;;;;20820461;28;20037;-77
2021/01/26 16:53:51;;;;;;;8.00;2.72;;;1.90;99.90;;;;;;20816318;28;20042;-76
2021/01/26 17:03:53;;;;;;;6.78;2.58;;;1.80;99.90;;;;;;20821452;28;20037;-79
2021/01/26 17:13:53;;;;;;;;;;;1.80;99.90;;;;;;20849776;28;20072;-78
2021/01/26 17:23:54;;;;;;;3.55;2.20;;;1.70;99.90;;;;;;20850301;28;20236;-77
2021/01/26 17:33:55;;;;;;;9.48;3.78;;;1.70;99.90;;;;;;20804675;28;20042;-78
2021/01/26 17:43:57;;;;;;;24.75;7.72;;;1.80;99.90;;;;;;20754522;28;20508;-77
2021/01/26 17:53:58;;;;;;;14.30;4.65;;;1.60;99.90;;;;;;20757744;28;20044;-78
2021/01/26 18:03:59;;;;;;;23.65;9.68;;;1.50;99.90;;;;;;20767425;28;20500;-76
2021/01/26 18:14:00;;;;;;;20.00;7.13;;;1.50;99.90;;;;;;20830823;28;20045;-78
2021/01/26 18:24:01;;;;;;;10.10;4.32;;;1.40;99.90;;;;;;20829294;28;20041;-77
2021/01/26 18:34:03;;;;;;;19.90;6.20;;;1.40;99.90;;;;;;20830729;28;20041;-77
2021/01/26 18:44:06;;;;;;;6.18;2.17;;;1.40;99.90;;;;;;20828109;28;20038;-75
2021/01/26 18:54:07;;;;;;;13.63;2.00;;;1.40;99.90;;;;;;20821830;28;20519;-77
2021/01/26 19:04:09;;;;;;;;;;;1.50;99.90;;;;;;20802204;28;20037;-76
2021/01/26 19:14:10;;;;;;;23.27;7.03;;;1.40;99.90;;;;;;20812520;28;19917;-76
2021/01/26 19:24:11;;;;;;;17.83;6.60;;;1.40;99.90;;;;;;20836300;28;20060;-77
2021/01/26 19:34:12;;;;;;;13.27;4.70;;;1.30;99.90;;;;;;20840127;28;20033;-76
2021/01/26 19:44:13;;;;;;;14.35;3.53;;;1.10;99.90;;;;;;20839137;28;20037;-78
2021/01/26 19:54:14;;;;;;;9.80;3.22;;;0.80;99.90;;;;;;20824962;28;20296;-79
2021/01/26 20:04:15;;;;;;;;;;;0.70;99.90;;;;;;20794211;28;20117;-77
2021/01/26 20:14:16;;;;;;;11.98;4.20;;;0.50;99.90;;;;;;20785764;28;19917;-77
2021/01/26 20:24:17;;;;;;;6.18;3.10;;;0.90;99.90;;;;;;20789985;28;20088;-78
2021/01/26 20:34:19;;;;;;;6.72;3.70;;;1.00;99.90;;;;;;20770480;28;20583;-79
2021/01/26 20:44:20;;;;;;;8.02;3.13;;;0.80;99.90;;;;;;20799003;28;20458;-79
2021/01/26 20:54:21;;;;;;;9.57;4.80;;;0.70;99.90;;;;;;20811618;28;20036;-78
2021/01/26 21:04:22;;;;;;;;;;;0.70;99.90;;;;;;20795093;28;20041;-78
2021/01/26 21:14:25;;;;;;;8.55;3.55;;;0.40;99.90;;;;;;20852887;28;19948;-78
2021/01/26 21:24:26;;;;;;;10.02;4.00;;;0.50;99.90;;;;;;20857793;28;20101;-78
2021/01/26 21:34:27;;;;;;;;;;;0.50;99.90;;;;;;20857682;28;20097;-77
2021/01/26 21:44:28;;;;;;;8.77;3.67;;;0.50;99.90;;;;;;20866643;28;19909;-77
2021/01/26 21:54:28;;;;;;;9.50;3.30;;;0.30;99.90;;;;;;20853652;28;20506;-77
2021/01/26 22:04:29;;;;;;;7.30;3.42;;;-0.10;99.90;;;;;;20862402;28;20474;-77
2021/01/26 22:14:30;;;;;;;18.45;5.15;;;-0.20;99.90;;;;;;20833247;28;20026;-77
2021/01/26 22:24:31;;;;;;;8.30;4.72;;;-0.20;99.90;;;;;;20831386;28;20040;-77
2021/01/26 22:34:32;;;;;;;15.75;6.22;;;-0.40;99.90;;;;;;20749310;28;20184;-77
2021/01/26 22:44:33;;;;;;;11.13;5.50;;;-0.60;99.90;;;;;;20731455;28;20113;-76
2021/01/26 22:54:34;;;;;;;11.07;5.40;;;-0.30;99.90;;;;;;20755183;28;20053;-76
2021/01/26 23:04:35;;;;;;;11.98;4.13;;;-0.50;99.90;;;;;;20751306;28;20034;-76
2021/01/26 23:14:36;;;;;;;13.35;4.80;;;-0.40;99.90;;;;;;20750224;28;20033;-76
2021/01/26 23:24:38;;;;;;;9.20;4.55;;;-0.40;99.90;;;;;;20758161;28;20030;-76
2021/01/26 23:34:39;;;;;;;7.63;4.75;;;-0.80;99.90;;;;;;20765357;28;20401;-77
2021/01/26 23:44:41;;;;;;;10.02;3.78;;;-0.80;99.90;;;;;;20748554;28;20026;-77
2021/01/26 23:54:42;;;;;;;6.55;3.42;;;-0.80;99.90;;;;;;20751287;28;20500;-77
